sensor_id;sensor_type;location;lat;lon;timestamp;temperature;humidity
66610;DHT22;53468;48.276;14.416;2022-07-01T01:09:00;18.70;99.90
66610;DHT22;53468;48.276;14.416;2022-07-01T01:14:45;18.50;99.90
66610;DHT22;53468;48.276;14.416;2022-07-01T01:20:21;18.40;99.90
66610;DHT22;53468;48.276;14.416;2022-07-01T01:26:19;18.50;99.90
66610;DHT22;53468;48.276;14.416;2022-07-01T01:32:16;18.30;99.90
66610;DHT22;53468;48.276;14.416;2022-07-01T01:38:13;18.40;99.90
66610;DHT22;53468;48.276;14.416;2022-07-01T01:44:14;18.50;99.90
66610;DHT22;53468;48.276;14.416;2022-07-01T01:50:23;18.50;99.90
66610;DHT22;53468;48.276;14.416;2022-07-01T01:56:11;18.50;99.90
66610;DHT22;53468;48.276;14.416;2022-07-01T02:14:28;18.50;99.90
66610;DHT22;53468;48.276;14.416;2022-07-01T02:20:13;18.40;99.90
66610;DHT22;53468;48.276;14.416;2022-07-01T02:25:49;18.30;99.90
66610;DHT22;53468;48.276;14.416;2022-07-01T02:31:27;18.30;99.90
66610;DHT22;53468;48.276;14.416;2022-07-01T02:37:02;18.20;99.90
66610;DHT22;53468;48.276;14.416;2022-07-01T02:42:37;18.10;99.90
66610;DHT22;53468;48.276;14.416;2022-07-01T02:48:12;18.10;99.90
66610;DHT22;53468;48.276;14.416;2022-07-01T02:53:46;17.90;99.90
66610;DHT22;53468;48.276;14.416;2022-07-01T02:59:20;17.90;99.90
66610;DHT22;53468;48.276;14.416;2022-07-01T03:05:00;17.80;99.90
66610;DHT22;53468;48.276;14.416;2022-07-01T03:10:34;17.80;99.90
66610;DHT22;53468;48.276;14.416;2022-07-01T03:16:07;17.80;99.90
66610;DHT22;53468;48.276;14.416;2022-07-01T03:21:44;17.70;99.90
66610;DHT22;53468;48.276;14.416;2022-07-01T03:27:19;17.70;99.90
66610;DHT22;53468;48.276;14.416;2022-07-01T03:32:57;17.70;99.90
66610;DHT22;53468;48.276;14.416;2022-07-01T03:38:38;17.80;99.90
66610;DHT22;53468;48.276;14.416;2022-07-01T03:44:11;17.90;99.90
66610;DHT22;53468;48.276;14.416;2022-07-01T03:49:45;17.90;99.90
66610;DHT22;53468;48.276;14.416;2022-07-01T03:55:20;17.90;99.90
66610;DHT22;53468;48.276;14.416;2022-07-01T04:00:56;17.90;99.90
66610;DHT22;53468;48.276;14.416;2022-07-01T04:06:30;17.90;99.90
66610;DHT22;53468;48.276;14.416;2022-07-01T04:12:05;18.00;99.90
66610;DHT22;53468;48.276;14.416;2022-07-01T04:17:39;18.00;99.90
66610;DHT22;53468;48.276;14.416;2022-07-01T04:23:13;18.10;99.90
66610;DHT22;53468;48.276;14.416;2022-07-01T04:28:47;18.20;99.90
66610;DHT22;53468;48.276;14.416;2022-07-01T04:34:19;18.30;99.90
66610;DHT22;53468;48.276;14.416;2022-07-01T04:39:52;18.50;99.90
66610;DHT22;53468;48.276;14.416;2022-07-01T04:45:31;18.80;99.90
66610;DHT22;53468;48.276;14.416;2022-07-01T04:51:07;18.80;99.90
66610;DHT22;53468;48.276;14.416;2022-07-01T04:57:02;18.80;99.90
66610;DHT22;53468;48.276;14.416;2022-07-01T05:15:51;19.40;99.90
66610;DHT22;53468;48.276;14.416;2022-07-01T05:21:24;19.20;99.90
66610;DHT22;53468;48.276;14.416;2022-07-01T05:27:13;19.30;99.90
66610;DHT22;53468;48.276;14.416;2022-07-01T05:32:47;19.40;99.90
66610;DHT22;53468;48.276;14.416;2022-07-01T05:38:19;19.50;99.90
66610;DHT22;53468;48.276;14.416;2022-07-01T05:43:51;19.50;99.90
66610;DHT22;53468;48.276;14.416;2022-07-01T05:49:25;19.70;99.90
66610;DHT22;53468;48.276;14.416;2022-07-01T05:54:57;20.10;99.90
66610;DHT22;53468;48.276;14.416;2022-07-01T06:00:29;20.10;99.90
66610;DHT22;53468;48.276;14.416;2022-07-01T06:06:03;20.30;99.90
66610;DHT22;53468;48.276;14.416;2022-07-01T06:11:35;20.30;99.90
66610;DHT22;53468;48.276;14.416;2022-07-01T06:17:08;20.30;99.90
66610;DHT22;53468;48.276;14.416;2022-07-01T06:22:55;20.50;99.90
66610;DHT22;53468;48.276;14.416;2022-07-01T06:28:30;20.60;99.90
66610;DHT22;53468;48.276;14.416;2022-07-01T06:34:02;20.50;99.90
66610;DHT22;53468;48.276;14.416;2022-07-01T06:39:37;20.60;99.90
66610;DHT22;53468;48.276;14.416;2022-07-01T06:45:28;20.60;99.90
66610;DHT22;53468;48.276;14.416;2022-07-01T06:51:03;21.10;99.90
66610;DHT22;53468;48.276;14.416;2022-07-01T06:56:37;21.20;99.90
66610;DHT22;53468;48.276;14.416;2022-07-01T07:02:09;21.50;99.90
66610;DHT22;53468;48.276;14.416;2022-07-01T07:07:41;22.10;99.90
66610;DHT22;53468;48.276;14.416;2022-07-01T07:13:15;22.40;99.90
66610;DHT22;53468;48.276;14.416;2022-07-01T07:18:48;22.60;99.90
66610;DHT22;53468;48.276;14.416;2022-07-01T07:24:20;23.00;99.90
66610;DHT22;53468;48.276;14.416;2022-07-01T07:29:54;23.80;99.90
66610;DHT22;53468;48.276;14.416;2022-07-01T07:35:26;23.80;99.90
66610;DHT22;53468;48.276;14.416;2022-07-01T07:40:59;23.50;99.90
66610;DHT22;53468;48.276;14.416;2022-07-01T07:46:52;23.90;99.90
66610;DHT22;53468;48.276;14.416;2022-07-01T07:52:39;23.60;99.90
66610;DHT22;53468;48.276;14.416;2022-07-01T07:58:11;23.30;99.90
66610;DHT22;53468;48.276;14.416;2022-07-01T08:03:45;23.60;99.90
66610;DHT22;53468;48.276;14.416;2022-07-01T08:09:18;24.40;99.90
66610;DHT22;53468;48.276;14.416;2022-07-01T08:15:04;23.80;99.90
66610;DHT22;53468;48.276;14.416;2022-07-01T08:20:39;23.70;99.90
66610;DHT22;53468;48.276;14.416;2022-07-01T08:26:17;23.70;99.90
66610;DHT22;53468;48.276;14.416;2022-07-01T15:07:28;18.50;99.90
66610;DHT22;53468;48.276;14.416;2022-07-01T15:13:24;17.60;99.90
66610;DHT22;53468;48.276;14.416;2022-07-01T15:18:59;17.10;99.90
66610;DHT22;53468;48.276;14.416;2022-07-01T15:24:39;16.40;99.90
66610;DHT22;53468;48.276;14.416;2022-07-01T15:31:03;16.30;99.90
66610;DHT22;53468;48.276;14.416;2022-07-01T15:37:12;16.30;99.90
66610;DHT22;53468;48.276;14.416;2022-07-01T16:16:01;16.50;99.90
66610;DHT22;53468;48.276;14.416;2022-07-01T16:21:35;16.50;99.90
66610;DHT22;53468;48.276;14.416;2022-07-01T16:34:00;16.50;99.90
66610;DHT22;53468;48.276;14.416;2022-07-01T16:39:44;16.50;99.90
66610;DHT22;53468;48.276;14.416;2022-07-01T16:58:37;16.20;99.90
66610;DHT22;53468;48.276;14.416;2022-07-01T17:04:12;16.40;99.90
66610;DHT22;53468;48.276;14.416;2022-07-01T17:09:47;16.30;99.90
66610;DHT22;53468;48.276;14.416;2022-07-01T17:15:26;16.10;99.90
66610;DHT22;53468;48.276;14.416;2022-07-01T17:21:24;16.10;99.90
66610;DHT22;53468;48.276;14.416;2022-07-01T17:40:51;16.00;99.90
66610;DHT22;53468;48.276;14.416;2022-07-01T17:47:02;15.80;99.90
66610;DHT22;53468;48.276;14.416;2022-07-01T17:52:57;15.90;99.90
66610;DHT22;53468;48.276;14.416;2022-07-01T18:30:29;15.80;99.90
66610;DHT22;53468;48.276;14.416;2022-07-01T18:36:36;15.80;99.90
66610;DHT22;53468;48.276;14.416;2022-07-01T18:42:48;15.70;99.90
66610;DHT22;53468;48.276;14.416;2022-07-01T18:48:43;15.70;99.90
66610;DHT22;53468;48.276;14.416;2022-07-01T18:54:30;15.60;99.90
66610;DHT22;53468;48.276;14.416;2022-07-01T19:00:06;15.60;99.90
66610;DHT22;53468;48.276;14.416;2022-07-01T19:12:15;15.60;99.90
66610;DHT22;53468;48.276;14.416;2022-07-01T19:18:02;15.70;99.90
66610;DHT22;53468;48.276;14.416;2022-07-01T19:23:49;15.70;99.90
66610;DHT22;53468;48.276;14.416;2022-07-01T19:29:36;15.70;99.90
66610;DHT22;53468;48.276;14.416;2022-07-01T19:35:15;15.70;99.90
66610;DHT22;53468;48.276;14.416;2022-07-01T20:19:03;15.60;99.90
66610;DHT22;53468;48.276;14.416;2022-07-01T20:24:50;15.50;99.90
66610;DHT22;53468;48.276;14.416;2022-07-01T20:30:24;15.20;99.90
66610;DHT22;53468;48.276;14.416;2022-07-01T20:36:04;15.10;99.90
66610;DHT22;53468;48.276;14.416;2022-07-01T20:41:38;15.00;99.90
66610;DHT22;53468;48.276;14.416;2022-07-01T20:47:37;15.00;99.90
66610;DHT22;53468;48.276;14.416;2022-07-01T20:53:19;14.90;99.90
66610;DHT22;53468;48.276;14.416;2022-07-01T20:58:54;14.90;99.90
66610;DHT22;53468;48.276;14.416;2022-07-01T21:04:29;14.70;99.90
66610;DHT22;53468;48.276;14.416;2022-07-01T21:10:07;14.80;99.90
66610;DHT22;53468;48.276;14.416;2022-07-01T21:15:44;14.70;99.90
66610;DHT22;53468;48.276;14.416;2022-07-01T21:28:40;14.60;99.90
66610;DHT22;53468;48.276;14.416;2022-07-01T21:34:13;14.60;99.90
66610;DHT22;53468;48.276;14.416;2022-07-01T21:39:48;14.60;99.90
66610;DHT22;53468;48.276;14.416;2022-07-01T21:45:29;14.60;99.90
66610;DHT22;53468;48.276;14.416;2022-07-01T21:51:33;14.60;99.90
66610;DHT22;53468;48.276;14.416;2022-07-01T22:04:14;14.50;99.90
66610;DHT22;53468;48.276;14.416;2022-07-01T22:23:14;14.40;99.90
66610;DHT22;53468;48.276;14.416;2022-07-01T22:29:29;14.40;99.90
66610;DHT22;53468;48.276;14.416;2022-07-01T22:35:05;14.40;99.90
66610;DHT22;53468;48.276;14.416;2022-07-01T22:40:43;14.50;99.90
66610;DHT22;53468;48.276;14.416;2022-07-01T22:46:33;14.40;99.90
66610;DHT22;53468;48.276;14.416;2022-07-01T22:52:18;14.30;99.90
66610;DHT22;53468;48.276;14.416;2022-07-01T22:58:17;14.30;99.90
66610;DHT22;53468;48.276;14.416;2022-07-01T23:04:30;14.20;99.90
